Airfield :
LOGIN :

Register | Disclaimer

   EN    FR    IT 

 










Legend :    VFR   Marginal VFR   IFR   Intensive IFR   Very Intensive IFR
Visi :
Ceiling :
>= 8 km
>= 3000ft
5 to 8 km
1000 to 3000 ft
1500m to 5 km
500 to 1000 ft
800 to 1500m
200 to 500 ft
< 800m
< 200 ft
Symbols :   Thunderstorms  Fog  Heavy snow  Heavy precipitations  Wind > 20 kt
SIGMETs :     Misc.  Thunderstorms  Icing  Turbulence  Mountain Waves  Volcanic Ashes






- Airport Elevation : 265 ft
- IATA code : BJY


LYBT - Batajnica Air Base

CURRENT METAR :
  • 190730Z 17003KT 150V210 6000 NSC 15/14 Q1018 NOSIG

EXPIRED METARs :
  • 190700Z VRB02KT 5000 BR NSC 14/14 Q1018 BECMG 8000 NSW
  • 190630Z VRB01KT 3000 BR NSC 12/12 Q1018 BECMG 5000
  • 190600Z 00000KT 2000 BR NSC 11/11 Q1018 NOSIG
  • 190530Z VRB01KT 1500 BR NSC 09/09 Q1017 TEMPO 0800 FG
  • 190500Z VRB01KT 2000 BR NSC 10/10 Q1017 TEMPO 0600 FG

TAF TAF LYBT
Valid from the 19 at 06:00 until the 20 at 06:00 UTC


190500Z 1906/2006 VRB02KT 1500 BR NSC TX26/1913Z TN09/1905Z
TEMPO 1906/1907 0600 FG
BECMG 1907/1909 9999 NSW
BECMG 2001/2003 3000 BR
TEMPO 2004/2006 0800 FG



MET'MAP, your aeronautical weather chart ! - Copyright ORBIFLY December 2007 - Disclaimer

ORBIFLY MET'MAP TEAM :

Programming & Development : Alexandra Zaïnal
Concept & Development : Baudouin d'Aumeries
Co-Development & Prog : Marc-Olivier Méhu
Technical & hardware support : Manuel Goepfert

Contact : metmap@orbifly.com




SOURCES & CREDITS :

   NOAA